Time;durP1;ratioP1;P1;durP2;ratioP2;P2;SDS_P1;SDS_P2;PMS_P1;PMS_P2;Temp;Humidity;BMP_temperature;BMP_pressure;BME280_temperature;BME280_humidity;BME280_pressure;Samples;Min_cycle;Max_cycle;Signal;HPM_P1;HPM_P2
2021/01/05 00:01:14;;;;;;;17.63;12.63;;;2.80;99.90;;;;;;5103465;28;20206;-81
2021/01/05 00:03:40;;;;;;;15.50;12.23;;;2.70;99.90;;;;;;5106911;28;20198;-79
2021/01/05 00:06:07;;;;;;;16.83;12.70;;;2.80;99.90;;;;;;5093493;28;20202;-79
2021/01/05 00:08:34;;;;;;;17.30;12.93;;;2.80;99.90;;;;;;5094702;28;20229;-80
2021/01/05 00:11:00;;;;;;;14.93;12.37;;;2.80;99.90;;;;;;5094083;28;20198;-79
2021/01/05 00:13:27;;;;;;;16.33;13.00;;;2.80;99.90;;;;;;5095072;28;20194;-80
2021/01/05 00:15:53;;;;;;;15.57;12.57;;;2.80;99.90;;;;;;5094007;28;20255;-79
2021/01/05 00:18:19;;;;;;;14.17;11.07;;;2.70;99.90;;;;;;5092714;28;20210;-79
2021/01/05 00:20:46;;;;;;;16.30;11.57;;;2.80;99.90;;;;;;5094552;28;20224;-80
2021/01/05 00:23:12;;;;;;;13.90;11.33;;;2.80;99.90;;;;;;5093923;28;20286;-81
2021/01/05 00:25:39;;;;;;;15.73;12.13;;;2.80;99.90;;;;;;5094904;28;20201;-79
2021/01/05 00:28:06;;;;;;;16.30;12.87;;;2.70;99.90;;;;;;5100555;28;20727;-80
2021/01/05 00:30:32;;;;;;;14.50;12.00;;;2.80;99.90;;;;;;5112840;28;20229;-80
2021/01/05 00:32:58;;;;;;;16.87;12.60;;;2.80;99.90;;;;;;5107800;28;20194;-80
2021/01/05 00:35:27;;;;;;;16.50;13.20;;;2.90;99.90;;;;;;5103664;28;20207;-80
2021/01/05 00:37:55;;;;;;;15.60;12.23;;;2.70;99.90;;;;;;5112383;28;20656;-80
2021/01/05 00:40:23;;;;;;;16.77;13.50;;;2.70;99.90;;;;;;5113037;28;20201;-81
2021/01/05 00:42:51;;;;;;;17.70;13.87;;;2.80;99.90;;;;;;5112614;28;20206;-79
2021/01/05 00:45:20;;;;;;;18.27;14.30;;;2.70;99.90;;;;;;5112850;28;20204;-80
2021/01/05 00:47:46;;;;;;;19.53;13.33;;;2.80;99.90;;;;;;5112224;28;20201;-80
2021/01/05 00:50:13;;;;;;;19.30;14.17;;;3.00;99.90;;;;;;5112452;28;20222;-80
2021/01/05 00:52:40;;;;;;;18.53;14.33;;;2.70;99.90;;;;;;5112543;28;20564;-80
2021/01/05 00:55:08;;;;;;;18.50;14.57;;;2.60;99.90;;;;;;5112433;28;20190;-80
2021/01/05 00:57:34;;;;;;;18.03;14.53;;;2.70;99.90;;;;;;5112666;28;20656;-80
2021/01/05 01:00:03;;;;;;;16.93;13.10;;;2.70;99.90;;;;;;5112360;28;20201;-80
2021/01/05 01:02:30;;;;;;;18.60;13.50;;;2.60;99.90;;;;;;5112579;28;20628;-80
2021/01/05 01:04:56;;;;;;;18.03;14.10;;;2.70;99.90;;;;;;5097836;28;20243;-80
2021/01/05 01:07:22;;;;;;;17.60;13.83;;;2.70;99.90;;;;;;5112752;28;20230;-80
2021/01/05 01:09:49;;;;;;;19.27;15.27;;;2.70;99.90;;;;;;5112494;28;20581;-79
2021/01/05 01:12:18;;;;;;;18.03;13.90;;;2.70;99.90;;;;;;5098463;28;20674;-79
2021/01/05 01:14:46;;;;;;;18.90;13.77;;;2.70;99.90;;;;;;5115414;28;20208;-79
2021/01/05 01:17:14;;;;;;;18.03;13.83;;;2.80;99.90;;;;;;5115829;28;20648;-79
2021/01/05 01:19:40;;;;;;;18.93;14.47;;;2.90;99.90;;;;;;5116149;28;20204;-79
2021/01/05 01:22:07;;;;;;;17.37;13.53;;;2.90;99.90;;;;;;5115816;28;20596;-79
2021/01/05 01:24:33;;;;;;;17.77;13.43;;;3.50;99.90;;;;;;5116490;28;20296;-79
2021/01/05 01:27:00;;;;;;;16.40;13.43;;;2.70;99.90;;;;;;5115756;28;20700;-79
2021/01/05 01:29:28;;;;;;;20.30;14.90;;;2.80;99.90;;;;;;5115698;28;20289;-78
2021/01/05 01:31:55;;;;;;;17.97;14.43;;;2.70;99.90;;;;;;5115978;28;20228;-79
2021/01/05 01:34:25;;;;;;;17.33;13.17;;;2.70;99.90;;;;;;5115772;28;20216;-79
2021/01/05 01:36:56;;;;;;;17.90;13.93;;;2.70;99.90;;;;;;5115876;28;20232;-78
2021/01/05 01:39:23;;;;;;;20.50;14.70;;;2.80;99.90;;;;;;5114184;28;20201;-79
2021/01/05 01:41:49;;;;;;;18.07;13.60;;;2.70;99.90;;;;;;5103388;28;20300;-78
2021/01/05 01:44:19;;;;;;;18.33;13.77;;;2.80;99.90;;;;;;5115651;28;20201;-79
2021/01/05 01:46:45;;;;;;;22.60;14.93;;;2.70;99.90;;;;;;5101864;28;20202;-79
2021/01/05 01:49:12;;;;;;;19.63;14.40;;;2.70;99.90;;;;;;5115588;28;20218;-80
2021/01/05 01:51:40;;;;;;;19.23;16.00;;;2.70;99.90;;;;;;5115498;28;20198;-79
2021/01/05 01:54:29;;;;;;;20.53;15.70;;;2.80;99.90;;;;;;5115807;28;20194;-79
2021/01/05 01:57:26;;;;;;;18.20;14.40;;;2.70;99.90;;;;;;5100903;28;20245;-79
2021/01/05 02:00:15;;;;;;;19.77;15.07;;;2.70;99.90;;;;;;5115046;28;20202;-80
2021/01/05 02:03:16;;;;;;;21.20;15.10;;;2.70;99.90;;;;;;5101699;28;20255;-80
2021/01/05 02:05:53;;;;;;;19.87;14.63;;;2.70;99.90;;;;;;5103484;28;20209;-81
2021/01/05 02:08:31;;;;;;;19.87;15.40;;;2.70;99.90;;;;;;5115321;28;20197;-79
2021/01/05 02:11:18;;;;;;;22.57;15.47;;;2.70;99.90;;;;;;5115714;28;20293;-80
2021/01/05 02:14:10;;;;;;;20.50;15.33;;;2.70;99.90;;;;;;5114818;28;20200;-81
2021/01/05 02:16:50;;;;;;;22.03;15.57;;;2.70;99.90;;;;;;5115598;28;20202;-80
2021/01/05 02:19:25;;;;;;;21.47;15.40;;;2.60;99.90;;;;;;5102977;28;20280;-79
2021/01/05 02:22:03;;;;;;;22.93;16.27;;;2.70;99.90;;;;;;5114819;28;20197;-81
2021/01/05 02:24:43;;;;;;;20.53;15.33;;;2.70;99.90;;;;;;5115159;28;20644;-80
2021/01/05 02:27:12;;;;;;;22.33;14.53;;;2.70;99.90;;;;;;5114561;28;20212;-79
2021/01/05 02:29:42;;;;;;;22.00;15.43;;;2.70;99.90;;;;;;5115282;28;20584;-80
2021/01/05 02:32:33;;;;;;;21.23;15.77;;;2.60;99.90;;;;;;5115209;28;20197;-80
2021/01/05 02:35:22;;;;;;;20.67;16.30;;;2.70;99.90;;;;;;5105683;28;20567;-80
2021/01/05 02:38:11;;;;;;;20.67;15.07;;;2.60;99.90;;;;;;5114371;28;20198;-80
2021/01/05 02:40:54;;;;;;;20.87;15.20;;;2.60;99.90;;;;;;5104172;28;20190;-79
2021/01/05 02:43:44;;;;;;;22.47;16.13;;;2.70;99.90;;;;;;5107825;28;20201;-80
2021/01/05 02:46:27;;;;;;;22.53;16.10;;;2.80;99.90;;;;;;5075595;28;20216;-80
2021/01/05 02:49:07;;;;;;;23.30;15.67;;;2.70;99.90;;;;;;5114286;28;20270;-80
2021/01/05 02:51:59;;;;;;;21.30;16.00;;;2.60;99.90;;;;;;5114655;28;20927;-80
2021/01/05 02:55:07;;;;;;;22.17;15.80;;;2.60;99.90;;;;;;5114550;28;20193;-80
2021/01/05 02:57:49;;;;;;;22.90;14.67;;;2.60;99.90;;;;;;5100682;28;20704;-80
2021/01/05 03:01:02;;;;;;;22.13;15.13;;;2.60;99.90;;;;;;5114410;28;20652;-79
2021/01/05 03:03:39;;;;;;;22.57;16.40;;;2.70;99.90;;;;;;5051779;28;20205;-79
2021/01/05 03:06:23;;;;;;;22.23;15.57;;;2.70;99.90;;;;;;5091698;28;20728;-79
2021/01/05 03:09:13;;;;;;;20.83;15.03;;;2.60;99.90;;;;;;5109444;28;20225;-79
2021/01/05 03:11:54;;;;;;;22.03;15.67;;;2.60;99.90;;;;;;5114828;28;20194;-79
2021/01/05 03:14:31;;;;;;;20.30;15.37;;;2.60;99.90;;;;;;5113946;28;20208;-80
2021/01/05 03:17:02;;;;;;;22.43;15.47;;;2.60;99.90;;;;;;5114176;28;20236;-79
2021/01/05 03:19:41;;;;;;;21.70;15.50;;;2.60;99.90;;;;;;5113916;28;20238;-79
2021/01/05 03:22:11;;;;;;;21.43;15.93;;;2.60;99.90;;;;;;5113847;28;20212;-79
2021/01/05 03:24:41;;;;;;;21.37;15.80;;;2.70;99.90;;;;;;5113637;28;20208;-79
2021/01/05 03:27:09;;;;;;;20.80;15.77;;;2.70;99.90;;;;;;5113873;28;20648;-80
2021/01/05 03:29:36;;;;;;;23.93;16.47;;;2.70;99.90;;;;;;5099617;28;20221;-79
2021/01/05 03:32:07;;;;;;;23.70;16.37;;;2.60;99.90;;;;;;5113824;28;20194;-79
2021/01/05 03:34:33;;;;;;;23.53;15.67;;;2.60;99.90;;;;;;5113459;28;20265;-80
2021/01/05 03:37:00;;;;;;;23.40;16.83;;;2.60;99.90;;;;;;5105004;28;20204;-79
2021/01/05 03:39:26;;;;;;;24.93;17.00;;;2.60;99.90;;;;;;5095707;28;20289;-80
2021/01/05 03:41:53;;;;;;;23.83;16.40;;;2.60;99.90;;;;;;5094819;28;20278;-79
2021/01/05 03:44:19;;;;;;;24.27;16.50;;;2.60;99.90;;;;;;5107242;28;20201;-80
2021/01/05 03:46:46;;;;;;;23.93;17.10;;;2.60;99.90;;;;;;5108452;28;20198;-80
2021/01/05 03:49:13;;;;;;;25.00;16.37;;;2.60;99.90;;;;;;5104871;28;20221;-80
2021/01/05 03:51:40;;;;;;;24.53;17.50;;;2.70;99.90;;;;;;5113230;28;20284;-79
2021/01/05 03:54:06;;;;;;;24.00;17.00;;;2.60;99.90;;;;;;5113710;28;20197;-80
2021/01/05 03:56:32;;;;;;;23.57;16.27;;;2.70;99.90;;;;;;5099157;28;20678;-79
2021/01/05 03:58:58;;;;;;;26.60;16.97;;;2.80;99.90;;;;;;5127179;28;20235;-80
2021/01/05 04:01:25;;;;;;;25.57;17.20;;;2.60;99.90;;;;;;5131310;28;20287;-79
2021/01/05 04:03:51;;;;;;;23.00;17.43;;;2.60;99.90;;;;;;5131119;28;20401;-80
2021/01/05 04:06:18;;;;;;;24.00;17.30;;;2.70;99.90;;;;;;5130038;28;20229;-79
2021/01/05 04:08:45;;;;;;;22.63;16.57;;;2.60;99.90;;;;;;5127928;28;20213;-79
2021/01/05 04:11:17;;;;;;;23.27;16.17;;;2.60;99.90;;;;;;5114112;28;20206;-80
2021/01/05 04:13:43;;;;;;;25.07;17.47;;;2.60;99.90;;;;;;5113064;28;20201;-80
2021/01/05 04:16:10;;;;;;;25.40;17.13;;;2.60;99.90;;;;;;5113437;28;20194;-80
2021/01/05 04:18:36;;;;;;;24.17;16.37;;;2.60;99.90;;;;;;5112682;28;20201;-80
2021/01/05 04:21:03;;;;;;;24.73;17.07;;;2.60;99.90;;;;;;5112905;28;20193;-80
2021/01/05 04:23:30;;;;;;;24.27;17.13;;;2.60;99.90;;;;;;5113375;28;20282;-80
2021/01/05 04:25:56;;;;;;;27.13;18.77;;;2.50;99.90;;;;;;5112942;28;20193;-80
2021/01/05 04:28:22;;;;;;;24.30;17.17;;;2.60;99.90;;;;;;5113178;28;20289;-79
2021/01/05 04:30:49;;;;;;;27.23;17.50;;;2.60;99.90;;;;;;5112768;28;20197;-79
2021/01/05 04:33:15;;;;;;;23.73;16.97;;;2.60;99.90;;;;;;5112724;28;20740;-80
2021/01/05 04:35:42;;;;;;;24.87;16.87;;;2.70;99.90;;;;;;5112753;28;20201;-79
2021/01/05 04:38:08;;;;;;;24.87;17.60;;;2.70;99.90;;;;;;5113053;28;20200;-79
2021/01/05 04:40:38;;;;;;;25.30;17.23;;;2.70;99.90;;;;;;5112773;28;20208;-79
2021/01/05 04:43:12;;;;;;;25.83;17.23;;;2.60;99.90;;;;;;5113013;28;20200;-80
2021/01/05 04:45:48;;;;;;;23.90;16.90;;;2.60;99.90;;;;;;5112969;28;20197;-79
2021/01/05 04:48:25;;;;;;;25.47;17.83;;;2.60;99.90;;;;;;5113182;28;20198;-79
2021/01/05 04:50:58;;;;;;;24.67;17.13;;;2.70;99.90;;;;;;5117049;28;20215;-79
2021/01/05 04:53:30;;;;;;;23.37;16.83;;;2.60;99.90;;;;;;5116955;28;20198;-79
2021/01/05 04:56:01;;;;;;;26.27;17.87;;;2.70;99.90;;;;;;5107282;28;20202;-79
2021/01/05 04:58:32;;;;;;;26.50;18.47;;;2.70;99.90;;;;;;5113325;28;20198;-79
2021/01/05 05:01:00;;;;;;;25.07;17.37;;;2.60;99.90;;;;;;5107394;28;20564;-79
2021/01/05 05:03:39;;;;;;;26.50;18.27;;;2.70;99.90;;;;;;5097849;28;20228;-78
2021/01/05 05:06:28;;;;;;;28.03;17.43;;;2.60;99.90;;;;;;5116754;28;20202;-77
2021/01/05 05:09:24;;;;;;;25.53;17.50;;;2.70;99.90;;;;;;5109038;28;20258;-79
2021/01/05 05:12:04;;;;;;;27.77;19.10;;;2.70;99.90;;;;;;5111481;28;20292;-79
2021/01/05 05:14:57;;;;;;;25.77;18.07;;;2.70;99.90;;;;;;5116643;28;20215;-79
2021/01/05 05:17:55;;;;;;;27.73;18.57;;;2.70;99.90;;;;;;5116691;28;20617;-79
2021/01/05 05:20:39;;;;;;;26.43;18.30;;;2.70;99.90;;;;;;5101905;28;20210;-80
2021/01/05 05:23:39;;;;;;;26.37;17.77;;;2.60;99.90;;;;;;5116576;28;20201;-79
2021/01/05 05:26:12;;;;;;;27.77;18.77;;;2.70;99.90;;;;;;5102123;28;20224;-79
2021/01/05 05:28:48;;;;;;;26.50;17.53;;;2.70;99.90;;;;;;5116289;28;20284;-79
2021/01/05 05:31:20;;;;;;;29.00;18.73;;;2.70;99.90;;;;;;5116254;28;20193;-79
2021/01/05 05:33:48;;;;;;;26.93;17.83;;;2.70;99.90;;;;;;5116378;28;20212;-79
2021/01/05 05:36:31;;;;;;;29.47;19.97;;;2.70;99.90;;;;;;5116068;28;20200;-78
2021/01/05 05:39:10;;;;;;;28.50;18.97;;;2.60;99.90;;;;;;5102017;28;20202;-79
2021/01/05 05:41:48;;;;;;;29.20;18.40;;;2.80;99.90;;;;;;5103790;28;20209;-79
2021/01/05 05:44:25;;;;;;;29.07;18.53;;;2.80;99.90;;;;;;5115658;28;20204;-80
2021/01/05 05:46:59;;;;;;;27.17;18.23;;;2.70;99.90;;;;;;5115917;28;20201;-80
2021/01/05 05:49:34;;;;;;;27.83;18.30;;;2.70;99.90;;;;;;5111754;28;20221;-80
2021/01/05 05:52:04;;;;;;;29.47;18.20;;;2.70;99.90;;;;;;5101121;28;20193;-80
2021/01/05 05:54:34;;;;;;;26.43;17.63;;;2.70;99.90;;;;;;5115688;28;20198;-79
2021/01/05 05:57:11;;;;;;;27.23;17.93;;;2.70;99.90;;;;;;5115532;28;20201;-79
2021/01/05 05:59:41;;;;;;;30.37;18.33;;;2.70;99.90;;;;;;5114921;28;20567;-79
2021/01/05 06:02:12;;;;;;;28.50;18.37;;;2.70;99.90;;;;;;5100909;28;20196;-79
2021/01/05 06:04:39;;;;;;;24.53;16.87;;;2.60;99.90;;;;;;5103859;28;20220;-80
2021/01/05 06:07:06;;;;;;;26.60;18.20;;;2.70;99.90;;;;;;5113481;28;20296;-80
2021/01/05 06:09:32;;;;;;;27.37;17.27;;;2.60;99.90;;;;;;5115501;28;20824;-80
2021/01/05 06:11:58;;;;;;;25.60;18.17;;;2.70;99.90;;;;;;5100933;28;20210;-80
2021/01/05 06:14:25;;;;;;;25.13;16.53;;;2.70;99.90;;;;;;5115742;28;20254;-78
2021/01/05 06:16:52;;;;;;;29.27;18.37;;;2.70;99.90;;;;;;5115244;28;20204;-80
2021/01/05 06:19:19;;;;;;;27.50;17.90;;;2.70;99.90;;;;;;5101574;28;20202;-80
2021/01/05 06:21:45;;;;;;;28.63;17.80;;;2.70;99.90;;;;;;5103159;28;20198;-79
2021/01/05 06:24:11;;;;;;;26.07;18.47;;;2.70;99.90;;;;;;5099290;28;20733;-79
2021/01/05 06:26:38;;;;;;;24.90;17.00;;;2.70;99.90;;;;;;5115324;28;20212;-79
2021/01/05 06:29:04;;;;;;;26.87;17.50;;;2.70;99.90;;;;;;5100722;28;20244;-78
2021/01/05 06:31:30;;;;;;;25.93;16.73;;;2.60;99.90;;;;;;5115055;28;20624;-79
2021/01/05 06:33:58;;;;;;;25.77;17.20;;;2.70;99.90;;;;;;5100581;28;20198;-79
2021/01/05 06:36:24;;;;;;;25.60;16.90;;;2.70;99.90;;;;;;5114901;28;21031;-79
2021/01/05 06:38:51;;;;;;;24.63;16.13;;;2.70;99.90;;;;;;5115130;28;20732;-79
2021/01/05 06:41:17;;;;;;;25.27;17.13;;;2.70;99.90;;;;;;5114726;28;20202;-79
2021/01/05 06:43:43;;;;;;;23.33;16.03;;;2.80;99.90;;;;;;5114841;28;20198;-80
2021/01/05 06:46:11;;;;;;;24.47;15.97;;;2.80;99.90;;;;;;5114980;28;20198;-80
2021/01/05 06:48:37;;;;;;;26.47;17.67;;;2.80;99.90;;;;;;5114520;28;20258;-78
2021/01/05 06:51:05;;;;;;;24.37;16.33;;;2.70;99.90;;;;;;5115049;28;20288;-79
2021/01/05 06:53:31;;;;;;;24.60;16.53;;;2.70;99.90;;;;;;5114577;28;20212;-79
2021/01/05 06:55:58;;;;;;;25.93;17.33;;;2.70;99.90;;;;;;5114708;28;20288;-79
2021/01/05 06:58:24;;;;;;;28.27;17.47;;;2.70;99.90;;;;;;5114357;28;20193;-79
2021/01/05 07:00:50;;;;;;;21.97;15.67;;;2.90;99.90;;;;;;5114545;28;20258;-78
2021/01/05 07:03:17;;;;;;;24.57;16.60;;;2.70;99.90;;;;;;5100188;28;20653;-79
2021/01/05 07:05:43;;;;;;;23.47;16.77;;;2.70;99.90;;;;;;5114639;28;20212;-78
2021/01/05 07:08:10;;;;;;;25.77;17.60;;;2.80;99.90;;;;;;5114523;28;20569;-79
2021/01/05 07:10:36;;;;;;;25.80;16.23;;;2.80;99.90;;;;;;5113883;28;20710;-78
2021/01/05 07:13:03;;;;;;;25.07;16.40;;;2.70;99.90;;;;;;5114074;28;20671;-81
2021/01/05 07:15:29;;;;;;;26.73;17.77;;;2.80;99.90;;;;;;5099763;28;20205;-81
2021/01/05 07:17:55;;;;;;;25.97;17.33;;;2.80;99.90;;;;;;5105066;28;20205;-79
2021/01/05 07:20:22;;;;;;;25.07;17.00;;;2.90;99.90;;;;;;5109097;28;20560;-79
2021/01/05 07:22:48;;;;;;;27.43;18.20;;;2.80;99.90;;;;;;5114667;28;20280;-80
2021/01/05 07:25:16;;;;;;;26.43;17.87;;;2.80;99.90;;;;;;5101150;28;20219;-78
2021/01/05 07:27:43;;;;;;;27.83;17.87;;;2.80;99.90;;;;;;5099401;28;20193;-79
2021/01/05 07:30:10;;;;;;;28.98;20.50;;;2.80;99.90;;;;;;5111000;28;20466;-79
2021/01/05 07:32:37;;;;;;;30.13;19.03;;;2.80;99.90;;;;;;5112937;28;20207;-79
2021/01/05 07:35:04;;;;;;;26.97;17.43;;;2.80;99.90;;;;;;5103676;28;20312;-79
2021/01/05 07:37:36;;;;;;;27.77;18.20;;;2.80;99.90;;;;;;5109095;28;20207;-79
2021/01/05 07:40:04;;;;;;;24.20;16.73;;;2.80;99.90;;;;;;5113428;28;20212;-80
2021/01/05 07:42:32;;;;;;;24.43;16.60;;;2.70;99.90;;;;;;5099071;28;20638;-79
2021/01/05 07:45:01;;;;;;;28.57;18.47;;;2.80;99.90;;;;;;5113344;28;20674;-78
2021/01/05 07:47:29;;;;;;;29.03;19.23;;;2.80;99.90;;;;;;5112820;28;20659;-79
2021/01/05 07:49:55;;;;;;;27.63;17.80;;;2.80;99.90;;;;;;5109753;28;20236;-79
2021/01/05 07:52:31;;;;;;;26.17;16.93;;;2.80;99.90;;;;;;5105093;28;20537;-79
2021/01/05 07:54:57;;;;;;;28.47;18.57;;;2.90;99.90;;;;;;5101080;28;20660;-79
2021/01/05 07:57:24;;;;;;;27.10;18.77;;;2.80;99.90;;;;;;5111277;28;20201;-79
2021/01/05 07:59:51;;;;;;;25.27;17.73;;;3.10;99.90;;;;;;5109222;28;20208;-79
2021/01/05 08:02:17;;;;;;;29.07;19.70;;;2.90;99.90;;;;;;5098598;28;20208;-80
2021/01/05 08:04:44;;;;;;;25.77;16.90;;;2.90;99.90;;;;;;5111617;28;20204;-79
2021/01/05 08:07:11;;;;;;;25.87;18.00;;;2.90;99.90;;;;;;5111072;28;20300;-80
2021/01/05 08:09:38;;;;;;;27.03;18.00;;;2.90;99.90;;;;;;5112123;28;20217;-80
2021/01/05 08:12:06;;;;;;;30.63;19.10;;;2.90;99.90;;;;;;5097208;28;20202;-79
2021/01/05 08:14:32;;;;;;;28.97;19.37;;;2.80;99.90;;;;;;5111301;28;20201;-80
2021/01/05 08:16:59;;;;;;;30.27;19.07;;;2.90;99.90;;;;;;5109552;28;20284;-80
2021/01/05 08:19:25;;;;;;;30.17;18.53;;;2.90;99.90;;;;;;5111041;28;20284;-80
2021/01/05 08:21:52;;;;;;;32.40;20.77;;;2.90;99.90;;;;;;5111490;28;20712;-81
2021/01/05 08:24:19;;;;;;;35.10;20.53;;;3.00;99.90;;;;;;5115032;28;20596;-81
2021/01/05 08:26:45;;;;;;;32.33;19.40;;;3.30;99.90;;;;;;5115301;28;20262;-80
2021/01/05 08:29:12;;;;;;;33.00;20.97;;;2.90;99.90;;;;;;5112009;28;20691;-81
2021/01/05 08:31:41;;;;;;;34.63;21.47;;;2.90;99.90;;;;;;5113931;28;20725;-80
2021/01/05 08:34:09;;;;;;;30.97;19.27;;;2.90;99.90;;;;;;5113866;28;20197;-79
2021/01/05 08:36:35;;;;;;;32.27;20.93;;;3.00;99.90;;;;;;5101476;28;20607;-80
2021/01/05 08:39:03;;;;;;;28.93;19.07;;;2.90;99.90;;;;;;5111525;28;20277;-80
2021/01/05 08:41:29;;;;;;;31.57;20.90;;;2.90;99.90;;;;;;5102887;28;20543;-80
2021/01/05 08:43:56;;;;;;;30.70;19.93;;;2.90;99.90;;;;;;5110193;28;20611;-81
2021/01/05 08:46:23;;;;;;;31.57;19.60;;;2.90;99.90;;;;;;5104455;28;20257;-80
2021/01/05 08:48:50;;;;;;;34.30;21.17;;;2.90;99.90;;;;;;5096410;28;20736;-79
2021/01/05 08:51:18;;;;;;;33.27;20.00;;;2.90;99.90;;;;;;5110384;28;20292;-79
2021/01/05 08:53:46;;;;;;;31.40;19.47;;;2.90;99.90;;;;;;5110924;28;20205;-81
2021/01/05 08:56:16;;;;;;;30.67;19.20;;;2.90;99.90;;;;;;5108948;28;20216;-81
2021/01/05 08:58:43;;;;;;;33.87;21.30;;;2.90;99.90;;;;;;5116923;28;20190;-80
2021/01/05 09:01:09;;;;;;;35.63;21.60;;;3.20;99.90;;;;;;5116594;28;20194;-79
2021/01/05 09:03:35;;;;;;;33.10;20.67;;;3.00;99.90;;;;;;5116423;28;20320;-81
2021/01/05 09:06:02;;;;;;;30.43;20.47;;;2.90;99.90;;;;;;5116603;28;20266;-79
2021/01/05 09:08:30;;;;;;;31.10;20.33;;;3.10;99.90;;;;;;5102056;28;20198;-79
2021/01/05 09:10:58;;;;;;;28.50;19.17;;;2.90;99.90;;;;;;5116647;28;20225;-80
2021/01/05 09:13:25;;;;;;;29.27;19.10;;;3.00;99.90;;;;;;5116440;28;20288;-80
2021/01/05 09:15:51;;;;;;;33.33;21.50;;;3.00;99.90;;;;;;5116155;28;20204;-80
2021/01/05 09:18:18;;;;;;;28.70;19.00;;;3.00;99.90;;;;;;5116221;28;20209;-79
2021/01/05 09:20:45;;;;;;;29.17;19.67;;;3.10;99.90;;;;;;5112354;28;20204;-79
2021/01/05 09:23:11;;;;;;;32.40;20.53;;;3.00;99.90;;;;;;5096455;28;20586;-81
2021/01/05 09:25:39;;;;;;;29.93;18.97;;;3.00;99.90;;;;;;5112705;28;20268;-80
2021/01/05 09:28:05;;;;;;;29.07;18.80;;;3.00;99.90;;;;;;5116347;28;20189;-79
2021/01/05 09:30:32;;;;;;;29.67;19.60;;;2.90;99.90;;;;;;5115616;28;20229;-81
2021/01/05 09:32:58;;;;;;;28.63;19.00;;;2.90;99.90;;;;;;5109717;28;20202;-80
2021/01/05 09:35:25;;;;;;;33.03;20.97;;;2.90;99.90;;;;;;5108908;28;20193;-79
2021/01/05 09:37:52;;;;;;;30.60;20.60;;;2.90;99.90;;;;;;5116086;28;20197;-80
2021/01/05 09:40:20;;;;;;;30.50;19.20;;;3.10;99.90;;;;;;5115929;28;20296;-80
2021/01/05 09:42:47;;;;;;;32.47;20.80;;;3.00;99.90;;;;;;5116251;28;20320;-79
2021/01/05 09:45:14;;;;;;;30.47;21.17;;;3.00;99.90;;;;;;5115896;28;20289;-80
2021/01/05 09:47:41;;;;;;;31.10;20.00;;;3.00;99.90;;;;;;5115782;28;20233;-81
2021/01/05 09:50:09;;;;;;;34.73;22.70;;;3.00;99.90;;;;;;5116178;28;20691;-79
2021/01/05 09:52:35;;;;;;;29.30;19.37;;;3.00;99.90;;;;;;5116049;28;20274;-80
2021/01/05 09:55:02;;;;;;;31.80;20.47;;;3.10;99.90;;;;;;5115848;28;20213;-81
2021/01/05 09:57:28;;;;;;;31.77;21.27;;;3.10;99.90;;;;;;5109054;28;20597;-80
2021/01/05 09:59:55;;;;;;;32.90;20.50;;;3.10;99.90;;;;;;5115624;28;20254;-79
2021/01/05 10:02:22;;;;;;;27.93;19.00;;;3.10;99.90;;;;;;5103927;28;20206;-81
2021/01/05 10:04:48;;;;;;;30.77;19.57;;;3.10;99.90;;;;;;5110143;28;20281;-79
2021/01/05 10:07:15;;;;;;;28.90;19.70;;;3.40;99.90;;;;;;5100049;28;20194;-80
2021/01/05 10:09:41;;;;;;;30.43;19.97;;;3.10;99.90;;;;;;5109615;28;20267;-79
2021/01/05 10:12:08;;;;;;;34.57;21.37;;;3.10;99.90;;;;;;5112201;28;20620;-79
2021/01/05 10:14:34;;;;;;;33.23;21.57;;;3.10;99.90;;;;;;5115544;28;20280;-79
2021/01/05 10:17:01;;;;;;;30.83;20.13;;;3.10;99.90;;;;;;5110105;28;20231;-79
2021/01/05 10:19:27;;;;;;;32.93;21.60;;;3.10;99.90;;;;;;5110404;28;20212;-80
2021/01/05 10:21:54;;;;;;;32.53;20.90;;;3.10;99.90;;;;;;5106312;28;20197;-80
2021/01/05 10:24:21;;;;;;;35.90;21.43;;;3.10;99.90;;;;;;5103965;28;20198;-79
2021/01/05 10:26:55;;;;;;;34.33;21.20;;;3.10;99.90;;;;;;5104434;28;20208;-80
2021/01/05 10:29:22;;;;;;;34.90;22.70;;;3.10;99.90;;;;;;5104174;28;20214;-79
2021/01/05 10:31:48;;;;;;;30.83;20.50;;;3.10;99.90;;;;;;5106695;28;20302;-78
2021/01/05 10:34:19;;;;;;;35.53;21.90;;;3.30;99.90;;;;;;5108497;27;20208;-78
2021/01/05 10:36:46;;;;;;;34.03;20.67;;;3.20;99.90;;;;;;5108899;27;20250;-79
2021/01/05 10:39:15;;;;;;;31.00;20.27;;;3.20;99.90;;;;;;5104532;27;20738;-78
2021/01/05 10:41:43;;;;;;;29.40;19.47;;;3.20;99.90;;;;;;5110132;27;20202;-77
2021/01/05 10:44:12;;;;;;;34.07;20.70;;;3.30;99.90;;;;;;5114173;28;20204;-78
2021/01/05 10:46:38;;;;;;;32.37;20.27;;;3.40;99.90;;;;;;5109238;28;20193;-78
2021/01/05 10:49:05;;;;;;;31.63;20.67;;;3.30;99.90;;;;;;5105185;28;20198;-78
2021/01/05 10:51:33;;;;;;;34.73;21.60;;;3.20;99.90;;;;;;5110745;28;20194;-77
2021/01/05 10:53:59;;;;;;;35.10;21.23;;;3.30;99.90;;;;;;5112657;28;20230;-78
2021/01/05 10:56:25;;;;;;;35.90;21.97;;;3.20;99.90;;;;;;5111306;28;20701;-78
2021/01/05 10:58:52;;;;;;;31.93;20.30;;;3.20;99.90;;;;;;5107263;28;20439;-78
2021/01/05 11:01:18;;;;;;;35.10;20.40;;;3.30;99.90;;;;;;5107001;28;20288;-78
2021/01/05 11:03:44;;;;;;;34.67;21.10;;;3.30;99.90;;;;;;5106099;28;20289;-76
2021/01/05 11:06:11;;;;;;;30.83;20.67;;;3.30;99.90;;;;;;5111140;28;20198;-79
2021/01/05 11:08:38;;;;;;;36.77;22.10;;;3.30;99.90;;;;;;5111030;28;20280;-79
2021/01/05 11:11:05;;;;;;;35.37;21.20;;;3.30;99.90;;;;;;5110832;28;20229;-77
2021/01/05 11:13:32;;;;;;;33.40;20.97;;;3.30;99.90;;;;;;5108213;28;20708;-78
2021/01/05 11:15:58;;;;;;;35.30;21.07;;;3.30;99.90;;;;;;5111809;28;20194;-78
2021/01/05 11:18:25;;;;;;;38.10;22.63;;;3.30;99.90;;;;;;5114089;28;20202;-78
2021/01/05 11:20:51;;;;;;;33.77;21.37;;;3.20;99.90;;;;;;5114192;28;20219;-78
2021/01/05 11:23:18;;;;;;;37.07;21.97;;;3.20;99.90;;;;;;5114335;28;20319;-78
2021/01/05 11:25:45;;;;;;;36.77;23.43;;;3.20;99.90;;;;;;5111948;28;20197;-77
2021/01/05 11:28:12;;;;;;;38.87;22.90;;;3.20;99.90;;;;;;5108098;28;20198;-78
2021/01/05 11:30:38;;;;;;;35.83;22.43;;;3.20;99.90;;;;;;5112273;28;20692;-77
2021/01/05 11:33:05;;;;;;;37.60;23.67;;;3.10;99.90;;;;;;5111026;28;20202;-78
2021/01/05 11:35:32;;;;;;;37.43;22.63;;;3.20;99.90;;;;;;5108470;28;20561;-79
2021/01/05 11:37:58;;;;;;;36.50;21.87;;;3.10;99.90;;;;;;5108390;28;20198;-78
2021/01/05 11:40:26;;;;;;;36.53;22.50;;;3.20;99.90;;;;;;5109572;28;20217;-79
2021/01/05 11:42:54;;;;;;;35.47;23.30;;;3.20;99.90;;;;;;5106055;28;20214;-79
2021/01/05 11:45:20;;;;;;;33.30;21.97;;;3.40;99.90;;;;;;5097432;28;20206;-78
2021/01/05 11:47:47;;;;;;;37.40;23.07;;;3.20;99.90;;;;;;5107817;28;20672;-78
2021/01/05 11:50:14;;;;;;;38.57;23.83;;;3.20;99.90;;;;;;5113556;28;20574;-78
2021/01/05 11:52:40;;;;;;;38.33;22.90;;;3.30;99.90;;;;;;5107135;28;20206;-79
2021/01/05 11:55:09;;;;;;;38.87;24.33;;;3.20;99.90;;;;;;5111515;28;20284;-79
2021/01/05 11:57:35;;;;;;;38.20;21.50;;;3.20;99.90;;;;;;5114220;28;20199;-80
2021/01/05 12:00:05;;;;;;;38.57;22.67;;;3.20;99.90;;;;;;5100552;28;20225;-80
2021/01/05 12:02:31;;;;;;;34.33;20.03;;;3.20;99.90;;;;;;5101844;28;20250;-79
2021/01/05 12:04:58;;;;;;;32.60;20.40;;;3.30;99.90;;;;;;5099877;28;20286;-81
2021/01/05 12:07:24;;;;;;;34.50;21.27;;;3.20;99.90;;;;;;5096444;28;20604;-79
2021/01/05 12:09:54;;;;;;;30.80;19.43;;;3.20;99.90;;;;;;5108946;28;20229;-80
2021/01/05 12:12:21;;;;;;;33.40;21.07;;;3.20;99.90;;;;;;5099246;28;20201;-80
2021/01/05 12:14:47;;;;;;;35.10;20.93;;;3.20;99.90;;;;;;5099785;28;20209;-80
2021/01/05 12:17:15;;;;;;;34.10;20.87;;;3.20;99.90;;;;;;5101437;28;20190;-79
2021/01/05 12:19:43;;;;;;;34.70;22.30;;;3.20;99.90;;;;;;5104426;28;20198;-79
2021/01/05 12:22:11;;;;;;;31.43;20.53;;;3.10;99.90;;;;;;5094717;28;20202;-80
2021/01/05 12:24:38;;;;;;;36.57;21.70;;;3.10;99.90;;;;;;5105580;28;20204;-79
2021/01/05 12:27:06;;;;;;;33.80;20.07;;;3.10;99.90;;;;;;5094432;28;20621;-81
2021/01/05 12:29:36;;;;;;;34.47;20.70;;;3.20;99.90;;;;;;5100663;28;20301;-79
2021/01/05 12:32:05;;;;;;;35.33;19.73;;;3.20;99.90;;;;;;5113459;28;20205;-80
2021/01/05 12:34:34;;;;;;;39.50;22.93;;;3.20;99.90;;;;;;5099367;28;20208;-79
2021/01/05 12:37:01;;;;;;;31.97;19.73;;;3.20;99.90;;;;;;5101497;28;20224;-78
2021/01/05 12:39:31;;;;;;;32.33;21.23;;;3.20;99.90;;;;;;5112713;28;20197;-79
2021/01/05 12:41:58;;;;;;;33.77;20.87;;;3.20;99.90;;;;;;5113106;28;20326;-79
2021/01/05 12:44:26;;;;;;;30.10;20.33;;;3.20;99.90;;;;;;5099678;28;20616;-80
2021/01/05 12:46:53;;;;;;;31.27;19.87;;;3.20;99.90;;;;;;5109608;28;20312;-79
2021/01/05 12:49:21;;;;;;;37.10;20.90;;;3.30;99.90;;;;;;5110283;28;20201;-80